Terminal Aerodrome Forecast
Issued by NWS Shreveport, LA

Home | Current Version | Previous Version | Text Only | Print | Product List | Glossary On
Versions: 1 2 3 4 5 6 7 8 9 10 11 12 13 14
000
FTUS44 KSHV 070532
TAFELD
TAF
KELD 070532Z 0706/0806 VRB03KT P6SM BKN250
     FM071400 16006KT P6SM SCT015 BKN250
      TEMPO 0714/0716 BKN015
     FM071600 16008KT P6SM BKN025
     FM071800 15009KT P6SM BKN035
     FM080000 15007KT P6SM SCT050 BKN250=

USA.gov is the U.S. government's official web portal to all federal, state and local government web resources and services.